createdAt,value
2018-09-28T00:02:15.235Z,101737.82
2018-09-28T00:04:43.474Z,101737.13
2018-09-28T00:07:11.727Z,101735.20
2018-09-28T00:09:39.960Z,101737.86
2018-09-28T00:12:08.423Z,101735.80
2018-09-28T00:14:36.663Z,101736.13
2018-09-28T00:17:04.933Z,101740.38
2018-09-28T00:19:33.362Z,101739.42
2018-09-28T00:22:01.664Z,101738.58
2018-09-28T00:24:29.864Z,101743.27
2018-09-28T00:26:58.092Z,101744.36
2018-09-28T00:29:26.353Z,101746.27
2018-09-28T00:31:54.615Z,101735.92
2018-09-28T00:34:22.879Z,101737.60
2018-09-28T00:36:51.136Z,101741.09
2018-09-28T00:39:19.323Z,101738.91
2018-09-28T00:41:47.600Z,101732.65
2018-09-28T00:44:15.861Z,101733.97
2018-09-28T00:46:44.115Z,101736.03
2018-09-28T00:49:12.413Z,101733.73
2018-09-28T00:51:40.887Z,101733.14
2018-09-28T00:54:09.150Z,101729.64
2018-09-28T00:56:37.460Z,101728.20
2018-09-28T00:59:05.852Z,101727.47
2018-09-28T01:01:34.159Z,101728.80
2018-09-28T01:04:02.419Z,101732.30
2018-09-28T01:06:30.666Z,101727.47
2018-09-28T01:08:58.899Z,101724.34
2018-09-28T01:11:27.628Z,101728.06
2018-09-28T01:13:55.899Z,101726.02
2018-09-28T01:16:29.484Z,101723.48
2018-09-28T01:18:57.771Z,101721.19
2018-09-28T01:21:26.119Z,101719.86
2018-09-28T01:23:54.367Z,101725.17
2018-09-28T01:26:22.578Z,101717.20
2018-09-28T01:28:50.804Z,101716.84
2018-09-28T01:31:19.120Z,101713.50
2018-09-28T01:33:47.400Z,101713.25
2018-09-28T01:36:15.805Z,101721.80
2018-09-28T01:38:44.057Z,101716.25
2018-09-28T01:41:12.263Z,101709.61
2018-09-28T01:43:40.498Z,101721.08
2018-09-28T01:46:09.041Z,101718.66
2018-09-28T01:48:37.381Z,101721.42
2018-09-28T01:51:05.629Z,101713.81
2018-09-28T01:53:33.821Z,101714.41
2018-09-28T01:56:02.016Z,101711.77
2018-09-28T01:58:30.263Z,101708.25
2018-09-28T02:00:59.065Z,101715.48
2018-09-28T02:03:27.519Z,101715.95
2018-09-28T02:05:55.751Z,101715.00
2018-09-28T02:08:24.015Z,101717.17
2018-09-28T02:10:52.389Z,101719.70
2018-09-28T02:13:20.590Z,101721.77
2018-09-28T02:15:48.955Z,101721.99
2018-09-28T02:18:17.143Z,101720.42
2018-09-28T02:20:45.388Z,101713.16
2018-09-28T02:23:13.570Z,101718.58
2018-09-28T02:25:41.827Z,101720.72
2018-09-28T02:28:10.159Z,101730.36
2018-09-28T02:30:38.377Z,101733.74
2018-09-28T02:33:06.715Z,101728.59
2018-09-28T02:35:34.916Z,101725.34
2018-09-28T02:38:03.159Z,101725.08
2018-09-28T02:40:31.379Z,101721.36
2018-09-28T02:42:59.696Z,101724.74
2018-09-28T02:45:27.886Z,101723.78
2018-09-28T02:47:56.158Z,101724.74
2018-09-28T02:50:24.414Z,101714.87
2018-09-28T02:52:52.633Z,101715.58
2018-09-28T02:55:20.899Z,101724.34
2018-09-28T02:57:49.117Z,101716.99
2018-09-28T03:00:17.320Z,101706.95
2018-09-28T03:02:45.627Z,101716.13
2018-09-28T03:05:13.907Z,101710.56
2018-09-28T03:07:42.142Z,101703.21
2018-09-28T03:10:10.349Z,101710.65
2018-09-28T03:12:38.548Z,101706.56
2018-09-28T03:15:06.954Z,101704.39
2018-09-28T03:17:35.288Z,101711.86
2018-09-28T03:20:03.623Z,101715.02
2018-09-28T03:22:31.862Z,101706.96
2018-09-28T03:25:00.076Z,101709.87
2018-09-28T03:27:28.304Z,101712.52
2018-09-28T03:29:57.180Z,101718.55
2018-09-28T03:32:25.619Z,101717.56
2018-09-28T03:34:53.899Z,101709.75
2018-09-28T03:37:22.106Z,101707.58
2018-09-28T03:39:50.412Z,101702.28
2018-09-28T03:42:18.777Z,101707.66
2018-09-28T03:44:47.036Z,101709.41
2018-09-28T03:47:15.279Z,101696.48
2018-09-28T03:49:43.531Z,101703.92
2018-09-28T03:52:11.763Z,101693.80
2018-09-28T03:54:39.963Z,101704.62
2018-09-28T03:57:08.274Z,101707.16
2018-09-28T03:59:36.522Z,101714.03
2018-09-28T04:02:05.317Z,101713.19
2018-09-28T04:04:33.498Z,101711.28
2018-09-28T04:07:01.847Z,101714.30
2018-09-28T04:09:30.320Z,101718.75
2018-09-28T04:11:58.555Z,101726.44
2018-09-28T04:14:27.415Z,101712.60
2018-09-28T04:16:55.624Z,101721.65
2018-09-28T04:19:23.867Z,101718.37
2018-09-28T04:21:59.794Z,101727.50
2018-09-28T04:24:28.984Z,101733.02
2018-09-28T04:26:57.356Z,101732.27
2018-09-28T04:29:26.119Z,101735.77
2018-09-28T04:31:54.616Z,101734.44
2018-09-28T04:34:23.481Z,101740.80
2018-09-28T04:36:52.137Z,101740.75
2018-09-28T04:39:21.042Z,101747.83
2018-09-28T04:41:49.817Z,101755.46
2018-09-28T04:44:18.741Z,101758.06
2018-09-28T04:46:47.088Z,101760.84
2018-09-28T04:49:15.327Z,101756.40
2018-09-28T04:51:43.531Z,101760.47
2018-09-28T04:54:11.794Z,101761.05
2018-09-28T04:56:40.065Z,101756.13
2018-09-28T04:59:08.378Z,101756.50
2018-09-28T05:01:36.769Z,101757.72
2018-09-28T05:04:04.965Z,101756.61
2018-09-28T05:06:33.206Z,101758.14
2018-09-28T05:09:01.693Z,101767.78
2018-09-28T05:11:30.007Z,101766.84
2018-09-28T05:13:58.319Z,101762.77
2018-09-28T05:16:26.596Z,101774.68
2018-09-28T05:18:54.824Z,101780.55
2018-09-28T05:21:23.101Z,101781.54
2018-09-28T05:23:51.322Z,101782.72
2018-09-28T05:26:19.611Z,101788.50
2018-09-28T05:28:50.226Z,101790.80
2018-09-28T05:31:18.505Z,101796.78
2018-09-28T05:33:46.567Z,101800.38
2018-09-28T05:36:14.814Z,101803.30
2018-09-28T05:38:42.991Z,101801.99
2018-09-28T05:41:11.207Z,101802.16
2018-09-28T05:43:39.373Z,101808.03
2018-09-28T05:46:07.603Z,101805.06
2018-09-28T05:48:35.763Z,101807.98
2018-09-28T05:51:04.024Z,101805.59
2018-09-28T05:53:32.183Z,101816.78
2018-09-28T05:56:00.362Z,101817.53
2018-09-28T05:58:34.056Z,101819.44
2018-09-28T06:01:07.511Z,101822.23
2018-09-28T06:03:39.845Z,101828.28
2018-09-28T06:06:08.182Z,101830.36
2018-09-28T06:08:36.360Z,101833.80
2018-09-28T06:11:04.573Z,101834.33
2018-09-28T06:13:32.742Z,101843.87
2018-09-28T06:16:00.894Z,101846.94
2018-09-28T06:18:29.083Z,101850.22
2018-09-28T06:20:57.223Z,101853.39
2018-09-28T06:23:25.442Z,101853.33
2018-09-28T06:25:53.617Z,101854.77
2018-09-28T06:28:21.794Z,101853.59
2018-09-28T06:30:49.995Z,101857.72
2018-09-28T06:33:18.174Z,101857.13
2018-09-28T06:35:46.392Z,101862.55
2018-09-28T06:38:14.619Z,101862.81
2018-09-28T06:40:42.751Z,101864.39
2018-09-28T06:43:10.942Z,101876.47
2018-09-28T06:45:39.127Z,101878.53
2018-09-28T06:48:07.364Z,101866.97
2018-09-28T06:50:35.451Z,101872.39
2018-09-28T06:53:03.619Z,101876.73
2018-09-28T06:55:31.816Z,101875.78
2018-09-28T06:58:00.021Z,101875.30
2018-09-28T07:00:28.178Z,101875.66
2018-09-28T07:02:56.338Z,101874.23
2018-09-28T07:05:24.533Z,101881.59
2018-09-28T07:07:52.716Z,101887.63
2018-09-28T07:10:20.874Z,101893.31
2018-09-28T07:12:49.048Z,101898.24
2018-09-28T07:15:17.202Z,101897.28
2018-09-28T07:17:45.407Z,101901.52
2018-09-28T07:20:13.558Z,101902.96
2018-09-28T07:22:41.758Z,101906.72
2018-09-28T07:25:09.937Z,101919.39
2018-09-28T07:27:38.091Z,101913.97
2018-09-28T07:30:06.556Z,101918.32
2018-09-28T07:32:34.747Z,101916.77
2018-09-28T07:35:02.910Z,101921.93
2018-09-28T07:37:31.087Z,101927.12
2018-09-28T07:39:59.247Z,101926.53
2018-09-28T07:42:27.432Z,101935.34
2018-09-28T07:44:55.615Z,101936.19
2018-09-28T07:47:23.832Z,101944.03
2018-09-28T07:49:52.083Z,101944.03
2018-09-28T07:52:20.256Z,101946.09
2018-09-28T07:54:48.902Z,101958.15
2018-09-28T07:57:17.104Z,101961.77
2018-09-28T07:59:45.298Z,101967.06
2018-09-28T08:02:13.506Z,101968.98
2018-09-28T08:04:41.682Z,101970.42
2018-09-28T08:07:09.894Z,101979.70
2018-09-28T08:09:38.095Z,101989.09
2018-09-28T08:12:06.418Z,101987.41
2018-09-28T08:14:34.596Z,101984.75
2018-09-28T08:17:02.885Z,101985.13
2018-09-28T08:19:31.059Z,101984.53
2018-09-28T08:22:05.878Z,101985.75
2018-09-28T08:24:34.094Z,101994.92
2018-09-28T08:27:02.219Z,102000.48
2018-09-28T08:29:30.390Z,101996.98
2018-09-28T08:31:58.583Z,102003.03
2018-09-28T08:34:26.916Z,102004.73
2018-09-28T08:36:55.202Z,102010.41
2018-09-28T08:39:23.314Z,102011.73
2018-09-28T08:41:51.559Z,102021.61
2018-09-28T08:44:19.703Z,102021.27
2018-09-28T08:46:47.866Z,102019.10
2018-09-28T08:49:16.103Z,102019.10
2018-09-28T08:51:44.218Z,102024.74
2018-09-28T08:54:12.408Z,102020.55
2018-09-28T08:56:40.594Z,102024.30
2018-09-28T08:59:08.772Z,102030.34
2018-09-28T09:01:37.039Z,102022.39
2018-09-28T09:04:05.202Z,102034.48
2018-09-28T09:06:33.442Z,102037.62
2018-09-28T09:09:01.627Z,102041.38
2018-09-28T09:11:29.795Z,102057.82
2018-09-28T09:13:57.966Z,102056.27
2018-09-28T09:16:26.172Z,102053.84
2018-09-28T09:18:54.369Z,102058.08
2018-09-28T09:21:22.557Z,102055.72
2018-09-28T09:23:50.749Z,102059.84
2018-09-28T09:26:18.898Z,102057.81
2018-09-28T09:28:47.082Z,102064.56
2018-09-28T09:31:15.839Z,102062.64
2018-09-28T09:33:44.056Z,102061.69
2018-09-28T09:36:12.292Z,102061.46
2018-09-28T09:38:40.462Z,102067.51
2018-09-28T09:41:08.735Z,102066.91
2018-09-28T09:43:36.910Z,102066.33
2018-09-28T09:46:05.383Z,102066.17
2018-09-28T09:48:33.607Z,102062.45
2018-09-28T09:51:01.891Z,102057.28
2018-09-28T09:53:30.059Z,102062.00
2018-09-28T09:55:58.297Z,102072.03
2018-09-28T09:58:26.488Z,102074.09
2018-09-28T10:01:00.036Z,102084.72
2018-09-28T10:03:48.358Z,102083.88
2018-09-28T10:06:16.546Z,102084.35
2018-09-28T10:08:44.727Z,102088.70
2018-09-28T10:11:12.927Z,102084.13
2018-09-28T10:13:41.088Z,102082.80
2018-09-28T10:16:09.421Z,102088.81
2018-09-28T10:18:37.651Z,102092.31
2018-09-28T10:21:06.135Z,102097.52
2018-09-28T10:23:34.312Z,102099.58
2018-09-28T10:26:02.473Z,102100.55
2018-09-28T10:28:30.692Z,102100.55
2018-09-28T10:30:58.820Z,102105.63
2018-09-28T10:33:27.066Z,102105.03
2018-09-28T10:35:55.250Z,102107.70
2018-09-28T10:38:23.441Z,102106.84
2018-09-28T10:40:51.650Z,102113.38
2018-09-28T10:43:19.799Z,102115.07
2018-09-28T10:45:48.286Z,102121.71
2018-09-28T10:48:16.442Z,102119.42
2018-09-28T10:50:44.616Z,102122.45
2018-09-28T10:53:12.873Z,102108.53
2018-09-28T10:58:15.490Z,102110.48
2018-09-28T11:00:43.671Z,102109.27
2018-09-28T11:03:11.962Z,102113.52
2018-09-28T11:05:40.256Z,102115.07
2018-09-28T11:08:08.474Z,102120.02
2018-09-28T11:10:36.654Z,102119.66
2018-09-28T11:13:04.816Z,102123.27
2018-09-28T11:15:33.150Z,102125.08
2018-09-28T11:18:01.249Z,102119.54
2018-09-28T11:20:29.546Z,102118.46
2018-09-28T11:22:57.718Z,102120.16
2018-09-28T11:25:26.035Z,102123.41
2018-09-28T11:27:54.225Z,102125.22
2018-09-28T11:30:22.467Z,102120.75
2018-09-28T11:32:50.675Z,102128.61
2018-09-28T11:35:18.839Z,102119.42
2018-09-28T11:37:47.027Z,102126.80
2018-09-28T11:40:15.180Z,102127.28
2018-09-28T11:42:43.379Z,102128.97
2018-09-28T11:45:11.585Z,102123.52
2018-09-28T11:47:39.739Z,102123.41
2018-09-28T11:50:07.907Z,102132.12
2018-09-28T11:52:36.085Z,102127.14
2018-09-28T11:55:04.272Z,102129.57
2018-09-28T11:57:32.523Z,102131.63
2018-09-28T12:00:00.749Z,102128.27
2018-09-28T12:02:28.844Z,102124.05
2018-09-28T12:04:57.035Z,102128.03
2018-09-28T12:07:25.162Z,102127.94
2018-09-28T12:09:53.331Z,102130.36
2018-09-28T12:12:21.626Z,102132.30
2018-09-28T12:14:49.675Z,102136.42
2018-09-28T12:17:17.850Z,102142.00
2018-09-28T12:19:46.020Z,102141.87
2018-09-28T12:22:14.179Z,102140.28
2018-09-28T12:24:42.417Z,102139.94
2018-09-28T12:27:10.598Z,102140.55
2018-09-28T12:29:38.756Z,102141.90
2018-09-28T12:32:13.673Z,102129.33
2018-09-28T12:34:41.857Z,102139.62
2018-09-28T12:37:10.045Z,102132.98
2018-09-28T12:39:38.269Z,102135.98
2018-09-28T12:42:06.655Z,102128.73
2018-09-28T12:44:34.869Z,102125.10
2018-09-28T12:47:02.983Z,102134.78
2018-09-28T12:49:31.178Z,102134.78
2018-09-28T12:51:59.352Z,102131.39
2018-09-28T12:54:27.649Z,102131.39
2018-09-28T12:56:55.756Z,102136.23
2018-09-28T12:59:23.924Z,102141.44
2018-09-28T13:01:52.097Z,102137.44
2018-09-28T13:04:20.739Z,102145.79
2018-09-28T13:06:50.106Z,102146.52
2018-09-28T13:09:18.471Z,102151.94
2018-09-28T13:11:46.931Z,102148.80
2018-09-28T13:14:15.203Z,102146.27
2018-09-28T13:16:43.281Z,102158.37
2018-09-28T13:19:11.484Z,102162.58
2018-09-28T13:21:39.705Z,102164.27
2018-09-28T13:24:07.861Z,102162.09
2018-09-28T13:26:36.077Z,102157.89
2018-09-28T13:29:04.237Z,102153.64
2018-09-28T13:31:32.404Z,102150.50
2018-09-28T13:34:00.677Z,102155.34
2018-09-28T13:36:28.893Z,102154.12
2018-09-28T13:38:57.725Z,102159.20
2018-09-28T13:41:26.051Z,102158.23
2018-09-28T13:43:54.216Z,102161.98
2018-09-28T13:46:23.323Z,102160.28
2018-09-28T13:48:51.565Z,102146.13
2018-09-28T13:51:19.676Z,102147.95
2018-09-28T13:53:47.973Z,102146.49
2018-09-28T13:56:16.055Z,102145.53
2018-09-28T13:58:44.239Z,102148.92
2018-09-28T14:01:12.410Z,102150.73
2018-09-28T14:03:40.959Z,102148.44
2018-09-28T14:06:10.401Z,102137.55
2018-09-28T14:08:38.596Z,102141.42
2018-09-28T14:11:06.747Z,102145.17
2018-09-28T14:13:34.998Z,102145.66
2018-09-28T14:16:03.321Z,102151.23
2018-09-28T14:18:33.651Z,102154.11
2018-09-28T14:21:03.049Z,102151.20
2018-09-28T14:23:32.586Z,102148.55
2018-09-28T14:26:01.061Z,102151.91
2018-09-28T14:28:30.967Z,102146.94
2018-09-28T14:30:59.206Z,102151.27
2018-09-28T14:33:27.549Z,102152.11
2018-09-28T14:35:55.888Z,102140.69
2018-09-28T14:38:24.334Z,102146.85
2018-09-28T14:40:53.479Z,102149.91
2018-09-28T14:43:22.170Z,102139.92
2018-09-28T14:45:50.530Z,102143.31
2018-09-28T14:48:18.965Z,102150.45
2018-09-28T14:50:47.404Z,102142.17
2018-09-28T14:53:15.765Z,102151.61
2018-09-28T14:55:44.159Z,102148.34
2018-09-28T14:58:12.671Z,102138.39
2018-09-28T15:00:41.042Z,102145.78
2018-09-28T15:03:14.471Z,102145.66
2018-09-28T15:05:43.723Z,102149.05
2018-09-28T15:08:12.602Z,102154.38
2018-09-28T15:10:41.396Z,102160.27
2018-09-28T15:13:09.894Z,102159.66
2018-09-28T15:15:39.105Z,102156.02
2018-09-28T15:18:09.734Z,102156.14
2018-09-28T15:20:42.458Z,102151.55
2018-09-28T15:23:11.069Z,102161.91
2018-09-28T15:25:42.039Z,102157.55
2018-09-28T15:28:10.345Z,102153.48
2018-09-28T15:30:38.712Z,102158.33
2018-09-28T15:33:07.168Z,102169.84
2018-09-28T15:35:35.801Z,102163.31
2018-09-28T15:38:05.650Z,102164.53
2018-09-28T15:40:34.820Z,102166.72
2018-09-28T15:43:05.325Z,102170.96
2018-09-28T15:45:33.899Z,102169.18
2018-09-28T15:48:02.682Z,102173.30
2018-09-28T15:50:32.810Z,102168.94
2018-09-28T15:53:01.657Z,102162.40
2018-09-28T15:55:31.054Z,102169.66
2018-09-28T15:57:59.467Z,102168.70
2018-09-28T16:00:28.199Z,102178.02
2018-09-28T16:02:58.929Z,102175.36
2018-09-28T16:05:28.466Z,102168.33
2018-09-28T16:07:56.933Z,102167.12
2018-09-28T16:10:25.413Z,102180.08
2018-09-28T16:12:54.050Z,102180.83
2018-09-28T16:15:23.595Z,102187.13
2018-09-28T16:17:53.401Z,102189.06
2018-09-28T16:20:23.031Z,102187.73
2018-09-28T16:22:56.576Z,102188.09
2018-09-28T16:25:24.976Z,102186.40
2018-09-28T16:27:53.442Z,102190.16
2018-09-28T16:30:21.897Z,102193.17
2018-09-28T16:32:50.303Z,102190.17
2018-09-28T16:35:22.942Z,102196.95
2018-09-28T16:37:52.114Z,102193.31
2018-09-28T16:40:21.055Z,102190.89
2018-09-28T16:42:49.516Z,102202.14
2018-09-28T16:45:19.292Z,102203.73
2018-09-28T16:47:47.653Z,102206.16
2018-09-28T16:50:16.921Z,102207.72
2018-09-28T16:52:46.460Z,102209.89
2018-09-28T16:55:15.514Z,102209.78
2018-09-28T16:57:46.248Z,102210.63
2018-09-28T17:00:15.877Z,102228.15
2018-09-28T17:02:45.194Z,102219.06
2018-09-28T17:05:13.779Z,102222.48
2018-09-28T17:07:42.625Z,102230.20
2018-09-28T17:10:11.523Z,102228.26
2018-09-28T17:12:40.269Z,102235.98
2018-09-28T17:15:08.795Z,102243.47
2018-09-28T17:17:38.204Z,102244.77
2018-09-28T17:20:07.109Z,102243.41
2018-09-28T17:22:35.458Z,102251.62
2018-09-28T17:25:03.871Z,102258.75
2018-09-28T17:27:33.199Z,102266.81
2018-09-28T17:30:02.584Z,102265.70
2018-09-28T17:32:34.104Z,102270.17
2018-09-28T17:35:05.583Z,102272.31
2018-09-28T17:37:34.383Z,102280.63
2018-09-28T17:40:02.722Z,102283.75
2018-09-28T17:42:31.072Z,102292.90
2018-09-28T17:44:59.641Z,102305.33
2018-09-28T17:47:28.058Z,102303.58
2018-09-28T17:49:56.878Z,102300.52
2018-09-28T17:52:25.537Z,102299.17
2018-09-28T17:54:54.331Z,102295.24
2018-09-28T17:57:22.487Z,102299.31
2018-09-28T17:59:50.655Z,102303.72
2018-09-28T18:02:18.823Z,102306.94
2018-09-28T18:04:46.967Z,102303.01
2018-09-28T18:07:15.298Z,102310.17
2018-09-28T18:09:43.708Z,102313.34
2018-09-28T18:12:13.515Z,102313.52
2018-09-28T18:14:41.836Z,102313.56
2018-09-28T18:17:10.335Z,102316.05
2018-09-28T18:19:47.515Z,102317.34
2018-09-28T18:22:16.514Z,102322.58
2018-09-28T18:24:45.027Z,102336.76
2018-09-28T18:27:13.396Z,102341.52
2018-09-28T18:29:41.862Z,102346.75
2018-09-28T18:32:10.151Z,102345.63
2018-09-28T18:34:38.556Z,102344.67
2018-09-28T18:37:07.413Z,102353.48
2018-09-28T18:39:35.886Z,102349.59
2018-09-28T18:42:04.494Z,102358.31
2018-09-28T18:44:32.868Z,102357.56
2018-09-28T18:47:01.320Z,102364.80
2018-09-28T18:49:30.103Z,102364.05
2018-09-28T18:51:58.725Z,102372.58
2018-09-28T18:54:27.151Z,102376.75
2018-09-28T18:56:55.513Z,102375.62
2018-09-28T18:59:24.044Z,102374.44
2018-09-28T19:01:52.535Z,102384.20
2018-09-28T19:04:20.994Z,102384.02
2018-09-28T19:06:49.721Z,102387.33
2018-09-28T19:09:19.110Z,102389.70
2018-09-28T19:11:48.219Z,102395.13
2018-09-28T19:14:17.091Z,102398.83
2018-09-28T19:16:46.440Z,102403.37
2018-09-28T19:19:14.987Z,102409.25
2018-09-28T19:21:43.216Z,102412.47
2018-09-28T19:24:11.487Z,102417.86
2018-09-28T19:26:39.788Z,102416.63
2018-09-28T19:29:08.046Z,102416.86
2018-09-28T19:31:36.809Z,102411.74
2018-09-28T19:34:05.135Z,102407.48
2018-09-28T19:36:33.843Z,102411.66
2018-09-28T19:39:02.088Z,102409.95
2018-09-28T19:41:30.732Z,102416.29
2018-09-28T19:43:59.182Z,102415.44
2018-09-28T19:46:28.077Z,102422.13
2018-09-28T19:48:57.529Z,102423.10
2018-09-28T19:51:25.977Z,102421.97
2018-09-28T19:53:54.306Z,102423.86
2018-09-28T19:56:23.507Z,102417.42
2018-09-28T19:58:52.074Z,102422.52
2018-09-28T20:01:20.598Z,102428.04
2018-09-28T20:03:48.899Z,102434.84
2018-09-28T20:06:18.708Z,102443.27
2018-09-28T20:08:47.933Z,102445.91
2018-09-28T20:11:16.314Z,102448.37
2018-09-28T20:13:45.427Z,102450.82
2018-09-28T20:16:14.055Z,102461.13
2018-09-28T20:18:42.571Z,102454.72
2018-09-28T20:21:10.896Z,102458.88
2018-09-28T20:23:39.208Z,102457.34
2018-09-28T20:26:07.753Z,102457.06
2018-09-28T20:28:37.641Z,102461.21
2018-09-28T20:31:06.906Z,102462.75
2018-09-28T20:33:35.607Z,102463.30
2018-09-28T20:36:03.883Z,102463.02
2018-09-28T20:38:33.082Z,102463.20
2018-09-28T20:41:01.577Z,102471.78
2018-09-28T20:43:29.920Z,102473.87
2018-09-28T20:46:01.569Z,102473.58
2018-09-28T20:48:30.919Z,102479.44
2018-09-28T20:51:02.176Z,102489.34
2018-09-28T20:53:30.796Z,102497.96
2018-09-28T20:56:01.885Z,102499.08
2018-09-28T20:58:30.505Z,102502.36
2018-09-28T21:00:59.151Z,102503.01
2018-09-28T21:03:27.564Z,102500.36
2018-09-28T21:05:56.995Z,102495.23
2018-09-28T21:08:25.376Z,102503.47
2018-09-28T21:10:53.779Z,102495.02
2018-09-28T21:13:23.394Z,102493.02
2018-09-28T21:15:51.654Z,102496.34
2018-09-28T21:18:19.928Z,102498.30
2018-09-28T21:20:48.454Z,102503.84
2018-09-28T21:23:16.870Z,102501.45
2018-09-28T21:25:45.143Z,102501.18
2018-09-28T21:28:13.752Z,102500.96
2018-09-28T21:30:42.603Z,102502.28
2018-09-28T21:33:11.900Z,102500.19
2018-09-28T21:35:40.731Z,102503.00
2018-09-28T21:38:09.119Z,102503.28
2018-09-28T21:40:37.319Z,102505.13
2018-09-28T21:43:06.359Z,102511.27
2018-09-28T21:45:35.005Z,102502.18
2018-09-28T21:48:03.529Z,102507.94
2018-09-28T21:50:32.123Z,102502.56
2018-09-28T21:53:00.863Z,102504.83
2018-09-28T21:55:29.774Z,102508.48
2018-09-28T21:57:58.099Z,102514.95
2018-09-28T22:00:26.418Z,102521.64
2018-09-28T22:02:54.852Z,102516.55
2018-09-28T22:05:23.155Z,102512.20
2018-09-28T22:07:51.691Z,102509.25
2018-09-28T22:10:20.123Z,102516.88
2018-09-28T22:12:48.833Z,102512.69
2018-09-28T22:15:17.792Z,102509.74
2018-09-28T22:17:46.677Z,102513.43
2018-09-28T22:20:15.713Z,102506.52
2018-09-28T22:22:44.813Z,102511.42
2018-09-28T22:25:13.072Z,102509.70
2018-09-28T22:27:42.128Z,102507.15
2018-09-28T22:30:11.486Z,102510.34
2018-09-28T22:32:40.807Z,102507.00
2018-09-28T22:35:10.071Z,102505.68
2018-09-28T22:37:38.682Z,102513.72
2018-09-28T22:40:07.914Z,102513.48
2018-09-28T22:42:36.554Z,102527.55
2018-09-28T22:45:04.948Z,102530.20
2018-09-28T22:47:33.307Z,102539.59
2018-09-28T22:50:01.670Z,102543.33
2018-09-28T22:52:30.047Z,102540.57
2018-09-28T22:54:58.347Z,102535.75
2018-09-28T22:57:26.607Z,102536.99
2018-09-28T22:59:54.900Z,102533.85
2018-09-28T23:02:23.266Z,102528.69
2018-09-28T23:04:51.581Z,102527.36
2018-09-28T23:07:20.063Z,102520.30
2018-09-28T23:09:48.371Z,102514.63
2018-09-28T23:12:21.438Z,102511.91
2018-09-28T23:14:49.967Z,102517.81
2018-09-28T23:17:18.396Z,102517.97
2018-09-28T23:19:46.601Z,102520.30
2018-09-28T23:22:14.858Z,102525.27
2018-09-28T23:24:43.271Z,102519.79
2018-09-28T23:27:11.582Z,102526.74
2018-09-28T23:29:40.042Z,102516.37
2018-09-28T23:32:08.536Z,102520.33
2018-09-28T23:34:36.839Z,102524.45
2018-09-28T23:37:05.158Z,102524.52
2018-09-28T23:39:33.516Z,102535.39
2018-09-28T23:42:01.751Z,102537.10
2018-09-28T23:44:30.092Z,102530.35
2018-09-28T23:46:58.464Z,102539.13
2018-09-28T23:49:26.715Z,102545.73
2018-09-28T23:51:55.096Z,102549.77
2018-09-28T23:54:23.433Z,102545.41
2018-09-28T23:56:51.816Z,102554.19
2018-09-28T23:59:20.728Z,102547.66
